Terminal Aerodrome Forecast
Issued by NWS

Home | Current Version | Previous Version | Text Only | Print | Product List | Glossary On
Versions: 1 2 3 4 5 6 7 8 9 10 11 12 13 14 15 16 17 18 19 20 21 22 23 24 25 26 27 28
284
FTUS43 KLOT 252332
TAFORD
TAF
KORD 252332Z 2600/2706 13010KT P6SM BKN250
     FM260200 16006KT P6SM BKN250
     FM261400 20009KT P6SM FEW040 SCT100 BKN250
     FM270100 15007KT P6SM BKN100 PROB30 2702/2706 5SM -TSRA
      BKN060CB=

USA.gov is the U.S. government's official web portal to all federal, state and local government web resources and services.